Time;durP1;ratioP1;P1;durP2;ratioP2;P2;SDS_P1;SDS_P2;PMS_P1;PMS_P2;Temp;Humidity;BMP_temperature;BMP_pressure;BME280_temperature;BME280_humidity;BME280_pressure;Samples;Min_cycle;Max_cycle;Signal;HPM_P1;HPM_P2
2022/06/30 00:00:10;;;;;;;23.02;12.10;;;;;;;-144.47;60.87;53239.44;5019023;28;20098;-71
2022/06/30 00:02:35;;;;;;;21.58;11.48;;;;;;;-144.47;60.53;53293.06;5014459;28;20065;-69
2022/06/30 00:05:00;;;;;;;23.58;11.40;;;;;;;-144.47;60.43;53295.06;5012473;28;20105;-68
2022/06/30 00:07:26;;;;;;;25.33;12.00;;;;;;;-144.47;60.66;53295.06;5011027;28;20022;-69
2022/06/30 00:09:52;;;;;;;20.40;10.75;;;;;;;-144.47;60.72;53259.31;5009326;28;20029;-69
2022/06/30 00:12:17;;;;;;;18.65;10.95;;;;;;;-144.47;60.54;53271.22;4992893;28;20033;-69
2022/06/30 00:14:43;;;;;;;20.77;10.85;;;;;;;-144.47;60.60;53251.34;5020711;28;20510;-69
2022/06/30 00:17:08;;;;;;;20.90;10.80;;;;;;;-144.47;60.64;53265.25;5010339;28;20109;-70
2022/06/30 00:19:35;;;;;;;19.58;10.80;;;;;;;-144.47;60.42;53287.13;5010611;28;20086;-68
2022/06/30 00:22:00;;;;;;;20.40;10.90;;;;;;;-144.47;60.44;53285.13;5009414;28;20487;-69
2022/06/30 00:24:26;;;;;;;15.02;9.98;;;;;;;-144.47;60.64;53283.13;5010708;28;20033;-67
2022/06/30 00:26:51;;;;;;;20.00;10.95;;;;;;;-144.47;60.37;53239.44;5010181;28;20025;-67
2022/06/30 00:29:16;;;;;;;20.00;10.73;;;;;;;-144.47;60.34;53271.22;5010289;28;20022;-69
2022/06/30 00:31:42;;;;;;;16.77;10.00;;;;;;;-144.47;60.25;53277.19;5046339;22;20064;-66
2022/06/30 00:34:08;;;;;;;20.83;9.98;;;;;;;-144.47;60.26;53263.28;5050517;28;20509;-65
2022/06/30 00:36:34;;;;;;;17.98;10.13;;;;;;;-144.47;60.32;53297.03;5050501;28;20548;-64
2022/06/30 00:38:59;;;;;;;21.92;10.02;;;;;;;-144.47;60.72;53271.22;5050925;28;20037;-65
2022/06/30 00:41:25;;;;;;;17.90;10.30;;;;;;;-144.47;60.50;53267.25;5050930;28;20359;-62
2022/06/30 00:43:51;;;;;;;20.38;11.57;;;;;;;-144.47;60.51;53275.19;5050833;28;20103;-64
2022/06/30 00:46:16;;;;;;;19.00;10.48;;;;;;;-144.47;60.50;53281.16;5049261;28;20013;-64
2022/06/30 00:48:43;;;;;;;18.20;10.20;;;;;;;-144.47;60.44;53271.22;5049841;28;20134;-64
2022/06/30 00:51:09;;;;;;;17.58;9.77;;;;;;;-144.47;60.47;53289.09;5050365;28;20025;-65
2022/06/30 00:53:37;;;;;;;16.08;9.35;;;;;;;-144.47;60.56;53273.22;5051581;28;20057;-66
2022/06/30 00:56:04;;;;;;;18.00;9.68;;;;;;;-144.47;60.43;53275.19;5050301;28;20101;-62
2022/06/30 00:58:35;;;;;;;23.58;10.60;;;;;;;-144.47;60.50;53297.03;5049868;28;20047;-65
2022/06/30 01:01:01;;;;;;;19.30;9.40;;;;;;;-144.47;60.39;53277.19;5049861;28;20021;-65
2022/06/30 01:03:26;;;;;;;23.50;9.85;;;;;;;-144.47;60.39;53257.31;5050269;28;20028;-64
2022/06/30 01:05:53;;;;;;;17.13;9.45;;;;;;;-144.47;60.52;53303.00;5050137;28;20028;-63
2022/06/30 01:08:19;;;;;;;19.13;10.88;;;;;;;-144.47;60.47;53295.06;5050677;28;20055;-67
2022/06/30 01:13:29;;;;;;;20.77;10.48;;;;;;;-144.47;60.37;53295.06;5038677;28;20128;-65
2022/06/30 01:15:54;;;;;;;18.58;11.23;;;;;;;-144.47;60.50;53289.09;5050780;28;20025;-64
2022/06/30 01:18:19;;;;;;;19.00;10.50;;;;;;;-144.47;60.67;53301.03;5051275;28;20067;-64
2022/06/30 01:20:45;;;;;;;19.77;9.55;;;;;;;-144.47;60.74;53243.41;5050757;28;20056;-66
2022/06/30 01:23:10;;;;;;;23.27;9.73;;;;;;;-144.47;60.60;53253.34;5050444;28;20020;-66
2022/06/30 01:25:36;;;;;;;21.33;10.80;;;;;;;-144.47;60.62;53297.03;5050804;28;20033;-65
2022/06/30 01:28:02;;;;;;;17.38;9.68;;;;;;;-144.47;60.79;53271.22;5050358;28;20063;-66
2022/06/30 01:30:28;;;;;;;19.23;9.80;;;;;;;-144.47;60.87;53299.03;5050088;28;20044;-65
2022/06/30 01:32:53;;;;;;;20.13;10.85;;;;;;;-144.47;60.59;53269.22;5050661;28;20036;-62
2022/06/30 01:35:19;;;;;;;20.95;10.88;;;;;;;-144.47;60.58;53273.22;5050053;28;20024;-64
2022/06/30 01:37:50;;;;;;;23.23;10.27;;;;;;;-144.47;60.57;53275.19;5049710;28;20409;-63
2022/06/30 01:40:16;;;;;;;20.85;10.85;;;;;;;-144.47;60.47;53310.94;5049862;28;20048;-62
2022/06/30 01:42:42;;;;;;;17.05;9.48;;;;;;;-144.47;60.37;53243.41;5049979;28;20048;-65
2022/06/30 01:45:08;;;;;;;20.70;10.38;;;;;;;-144.47;60.49;53269.22;5049662;28;20469;-66
2022/06/30 01:47:35;;;;;;;21.95;11.32;;;;;;;-144.47;60.54;53279.16;5049245;28;20025;-63
2022/06/30 01:50:04;;;;;;;22.55;11.52;;;;;;;-144.47;60.84;53261.28;5049600;28;20090;-65
2022/06/30 01:52:30;;;;;;;21.98;11.30;;;;;;;-144.47;60.72;53281.16;5049852;28;20379;-65
2022/06/30 01:54:55;;;;;;;16.70;10.65;;;;;;;-144.47;61.18;53271.22;5049884;28;20075;-64
2022/06/30 01:57:20;;;;;;;19.58;11.75;;;;;;;-144.47;61.37;53271.22;5050414;28;20036;-65
2022/06/30 01:59:46;;;;;;;19.45;11.93;;;;;;;-144.47;61.44;53320.88;5050038;28;20445;-64
2022/06/30 02:02:14;;;;;;;21.45;11.77;;;;;;;-144.47;61.39;53297.03;5049605;28;20025;-66
2022/06/30 02:04:48;;;;;;;27.67;11.05;;;;;;;-144.47;61.56;53289.09;5049993;28;20013;-65
2022/06/30 02:07:14;;;;;;;24.65;11.52;;;;;;;-144.47;61.66;53312.94;5049220;28;20291;-65
2022/06/30 02:09:40;;;;;;;19.65;10.77;;;;;;;-144.47;61.76;53281.16;5048584;28;20032;-65
2022/06/30 02:14:51;;;;;;;19.80;10.63;;;;;;;-144.47;61.88;53305.00;5048594;28;20047;-65
2022/06/30 02:17:16;;;;;;;20.90;11.65;;;;;;;-144.47;61.62;53318.91;5049060;28;20032;-64
2022/06/30 02:19:42;;;;;;;21.63;11.23;;;;;;;-144.47;61.46;53275.19;5047747;28;20063;-65
2022/06/30 02:22:07;;;;;;;19.13;10.65;;;;;;;-144.47;61.36;53275.19;5049479;28;20036;-62
2022/06/30 02:24:32;;;;;;;23.98;11.38;;;;;;;-144.47;61.56;53281.16;5049469;28;20502;-64
2022/06/30 02:26:58;;;;;;;17.23;10.18;;;;;;;-144.47;61.54;53312.94;5049096;28;20025;-64
2022/06/30 02:29:23;;;;;;;19.33;11.07;;;;;;;-144.47;61.46;53287.13;5048874;28;20502;-65
2022/06/30 02:31:49;;;;;;;23.80;11.45;;;;;;;-144.47;61.51;53297.03;5049084;28;20029;-61
2022/06/30 02:34:14;;;;;;;22.45;10.35;;;;;;;-144.47;61.39;53263.28;5047412;28;20033;-65
2022/06/30 02:36:40;;;;;;;25.48;10.50;;;;;;;-144.47;61.42;53269.22;5047469;28;20036;-65
2022/06/30 02:39:06;;;;;;;18.17;11.10;;;;;;;-144.47;61.46;53318.91;5049016;28;20024;-65
2022/06/30 02:41:31;;;;;;;15.88;9.75;;;;;;;-144.47;61.45;53279.16;5048662;28;20051;-65
2022/06/30 02:43:58;;;;;;;28.13;11.45;;;;;;;-144.47;61.43;53324.84;5048680;28;20463;-62
2022/06/30 02:46:23;;;;;;;27.08;10.90;;;;;;;-144.47;61.17;53308.97;5046921;28;20494;-66
2022/06/30 02:48:49;;;;;;;19.67;10.65;;;;;;;-144.47;61.19;53271.22;5048487;28;20033;-63
2022/06/30 02:51:14;;;;;;;20.55;10.48;;;;;;;-144.47;61.35;53297.03;5049172;28;20127;-66
2022/06/30 02:53:40;;;;;;;20.90;10.18;;;;;;;-144.47;61.36;53271.22;5048577;28;20418;-65
2022/06/30 02:56:05;;;;;;;20.10;10.43;;;;;;;-144.47;61.17;53281.16;5047190;28;20052;-66
2022/06/30 02:58:30;;;;;;;18.10;10.50;;;;;;;-144.47;61.31;53301.03;5048624;28;20116;-65
2022/06/30 03:00:56;;;;;;;18.85;10.90;;;;;;;-144.47;61.51;53324.84;5048349;28;20494;-63
2022/06/30 03:03:21;;;;;;;19.73;9.98;;;;;;;-144.47;61.49;53322.88;5048877;28;20032;-66
2022/06/30 03:05:46;;;;;;;17.00;9.55;;;;;;;-144.47;61.36;53295.06;5048480;28;20486;-65
2022/06/30 03:08:12;;;;;;;16.05;9.63;;;;;;;-144.47;61.36;53293.06;5048407;28;20115;-66
2022/06/30 03:10:37;;;;;;;17.15;10.00;;;;;;;-144.47;61.44;53289.09;5048794;28;20470;-65
2022/06/30 03:13:02;;;;;;;18.55;9.18;;;;;;;-144.47;61.49;53267.25;5048458;28;20017;-65
2022/06/30 03:15:28;;;;;;;20.15;9.82;;;;;;;-144.47;61.41;53249.38;5048443;28;20061;-64
2022/06/30 03:17:53;;;;;;;16.75;9.02;;;;;;;-144.47;60.86;53308.97;5048144;28;20035;-65
2022/06/30 03:20:18;;;;;;;17.83;9.60;;;;;;;-144.47;60.77;53301.03;5048384;28;20083;-65
2022/06/30 03:22:44;;;;;;;18.25;9.80;;;;;;;-144.47;60.62;53269.22;5048382;28;20112;-66
2022/06/30 03:25:09;;;;;;;15.23;8.95;;;;;;;-144.47;60.59;53281.16;5051671;28;20016;-67
2022/06/30 03:27:35;;;;;;;22.70;10.07;;;;;;;-144.47;60.30;53293.06;5052752;28;20106;-63
2022/06/30 03:30:00;;;;;;;15.43;9.30;;;;;;;-144.47;60.56;53269.22;5052632;28;20219;-65
2022/06/30 03:32:26;;;;;;;17.35;9.48;;;;;;;-144.47;60.87;53295.06;5052717;28;20044;-65
2022/06/30 03:34:51;;;;;;;20.88;9.00;;;;;;;-144.47;60.85;53297.03;5052627;28;20033;-66
2022/06/30 03:37:16;;;;;;;18.15;9.32;;;;;;;-144.47;60.63;53330.81;5052767;28;20017;-64
2022/06/30 03:39:42;;;;;;;25.25;9.68;;;;;;;-144.47;60.71;53303.00;5051864;28;20025;-65
2022/06/30 03:42:08;;;;;;;17.58;9.45;;;;;;;-144.47;60.78;53301.03;5053162;28;20031;-65
2022/06/30 03:44:33;;;;;;;16.50;8.77;;;;;;;-144.47;60.68;53316.91;5052971;28;20021;-63
2022/06/30 03:46:59;;;;;;;20.27;8.82;;;;;;;-144.47;60.80;53301.03;5051924;28;20103;-67
2022/06/30 03:49:27;;;;;;;16.88;8.52;;;;;;;-144.47;60.87;53259.31;5052690;28;20025;-64
2022/06/30 03:51:52;;;;;;;21.05;9.45;;;;;;;-144.47;61.15;53308.97;5050785;28;20067;-66
2022/06/30 03:54:19;;;;;;;15.95;8.25;;;;;;;-144.47;60.86;53305.00;5052707;28;20060;-64
2022/06/30 03:56:44;;;;;;;13.65;7.72;;;;;;;-144.47;60.89;53312.94;5051024;28;20020;-64
2022/06/30 03:59:10;;;;;;;21.23;10.25;;;;;;;-144.47;60.59;53299.03;5044214;28;20439;-66
2022/06/30 04:01:35;;;;;;;13.55;9.15;;;;;;;-144.47;60.56;53322.88;5051302;28;20274;-64
2022/06/30 04:04:00;;;;;;;17.17;8.30;;;;;;;-144.47;60.33;53299.03;5051757;28;20328;-64
2022/06/30 04:06:26;;;;;;;20.80;9.13;;;;;;;-144.47;59.92;53287.13;5050985;28;20021;-64
2022/06/30 04:08:51;;;;;;;21.00;9.20;;;;;;;-144.47;59.80;53312.94;5051611;28;20032;-66
2022/06/30 04:11:17;;;;;;;16.67;8.63;;;;;;;-144.47;59.45;53303.00;5049630;28;20067;-65
2022/06/30 04:13:42;;;;;;;15.73;8.77;;;;;;;-144.47;59.56;53318.91;5050913;28;20033;-64
2022/06/30 04:16:07;;;;;;;19.08;8.77;;;;;;;-144.47;59.01;53301.03;5050449;28;20056;-65
2022/06/30 04:18:33;;;;;;;17.50;8.88;;;;;;;-144.47;59.02;53287.13;5050987;28;20025;-63
2022/06/30 04:20:58;;;;;;;18.48;8.73;;;;;;;-144.47;59.36;53293.06;5050636;28;20037;-64
2022/06/30 04:23:24;;;;;;;19.15;8.98;;;;;;;-144.47;59.13;53303.00;5051700;28;20032;-65
2022/06/30 04:25:49;;;;;;;16.67;9.15;;;;;;;-144.47;59.23;53287.13;5050750;28;20024;-66
2022/06/30 04:28:15;;;;;;;24.55;9.07;;;;;;;-144.47;59.45;53293.06;5050304;28;20115;-64
2022/06/30 04:33:24;;;;;;;15.73;9.18;;;;;;;-144.47;59.01;53269.22;5050533;28;20032;-62
2022/06/30 04:35:49;;;;;;;31.20;9.60;;;;;;;-144.47;58.73;53271.22;5049692;28;20029;-63
2022/06/30 04:38:15;;;;;;;13.90;8.13;;;;;;;-144.47;58.18;53267.25;5050859;28;20053;-66
2022/06/30 04:43:24;;;;;;;15.10;8.00;;;;;;;-144.47;57.87;53277.19;5050269;28;20082;-66
2022/06/30 04:45:49;;;;;;;14.65;7.88;;;;;;;-144.47;57.04;53259.31;5040783;28;20112;-66
2022/06/30 04:48:15;;;;;;;12.05;7.63;;;;;;;-144.47;56.41;53297.03;5043604;28;20052;-64
2022/06/30 04:50:40;;;;;;;13.32;7.75;;;;;;;-144.47;56.14;53259.31;5046819;28;20028;-66
2022/06/30 04:53:06;;;;;;;16.63;8.20;;;;;;;-144.47;56.35;53277.19;5049105;28;20025;-63
2022/06/30 04:55:32;;;;;;;14.43;7.82;;;;;;;-144.47;56.18;53277.19;5050328;28;20028;-67
2022/06/30 04:57:57;;;;;;;16.45;8.25;;;;;;;-144.47;56.26;53249.38;5047279;28;20021;-64
2022/06/30 05:00:23;;;;;;;23.00;7.78;;;;;;;-144.47;55.72;53267.25;5041667;28;20116;-64
2022/06/30 05:02:48;;;;;;;16.23;7.13;;;;;;;-144.47;55.62;53295.06;5046430;28;20017;-66
2022/06/30 05:05:14;;;;;;;16.83;8.88;;;;;;;-144.47;54.90;53269.22;5040765;28;20493;-66
2022/06/30 05:07:39;;;;;;;16.58;7.25;;;;;;;-144.47;54.62;53259.31;5048384;28;20029;-66
2022/06/30 05:10:05;;;;;;;22.70;6.40;;;;;;;-144.47;54.39;53283.13;5047850;28;20047;-67
2022/06/30 05:12:30;;;;;;;19.10;7.22;;;;;;;-144.47;54.01;53263.28;5043305;28;20029;-68
2022/06/30 05:14:56;;;;;;;13.02;6.68;;;;;;;-144.47;53.92;53291.09;5041160;28;20133;-66
2022/06/30 05:17:21;;;;;;;16.85;7.10;;;;;;;-144.47;53.37;53263.28;5049520;28;20363;-65
2022/06/30 05:19:47;;;;;;;12.95;6.68;;;;;;;-144.47;53.09;53241.44;5050168;28;20021;-67
2022/06/30 05:22:12;;;;;;;16.80;6.82;;;;;;;-144.47;52.61;53251.34;5048782;28;20102;-64
2022/06/30 05:27:22;;;;;;;22.77;9.70;;;;;;;-144.47;53.10;53263.28;5037569;28;20032;-64
2022/06/30 05:29:47;;;;;;;18.23;9.73;;;;;;;-144.47;53.14;53277.19;5049542;28;20025;-62
2022/06/30 05:32:12;;;;;;;21.58;10.05;;;;;;;-144.47;52.66;53277.19;5049174;28;20192;-64
2022/06/30 05:34:38;;;;;;;22.98;10.50;;;;;;;-144.47;52.67;53265.25;5049463;28;20021;-64
2022/06/30 05:37:04;;;;;;;25.58;11.65;;;;;;;-144.47;52.79;53243.41;5049516;28;20024;-65
2022/06/30 05:39:31;;;;;;;37.30;12.48;;;;;;;-144.47;53.25;53275.19;5048231;28;20091;-62
2022/06/30 05:41:56;;;;;;;22.23;11.25;;;;;;;-144.47;53.04;53241.44;5048281;28;20033;-64
2022/06/30 05:44:22;;;;;;;21.27;11.60;;;;;;;-144.47;52.89;53273.22;5049950;28;20032;-67
2022/06/30 05:46:47;;;;;;;21.85;11.35;;;;;;;-144.47;52.48;53239.44;5048621;28;20029;-63
2022/06/30 05:49:12;;;;;;;21.42;9.93;;;;;;;-144.47;52.05;53213.63;5050411;28;20017;-67
2022/06/30 05:51:38;;;;;;;25.35;9.57;;;;;;;-144.47;51.98;53273.22;5049836;28;20568;-65
2022/06/30 05:54:03;;;;;;;22.27;8.82;;;;;;;-144.47;51.66;53253.34;5050500;28;20024;-66
2022/06/30 05:56:29;;;;;;;21.38;9.63;;;;;;;-144.47;51.73;53233.47;5049255;28;20028;-64
2022/06/30 05:58:54;;;;;;;25.27;10.30;;;;;;;-144.47;51.70;53243.41;5049414;28;20036;-66
2022/06/30 06:01:20;;;;;;;98.72;16.38;;;;;;;-144.47;52.04;53247.38;5049351;28;20021;-66
2022/06/30 06:03:46;;;;;;;27.30;11.48;;;;;;;-144.47;51.87;53267.25;5049318;28;20020;-66
2022/06/30 06:06:11;;;;;;;24.30;12.05;;;;;;;-144.47;52.66;53231.50;5049981;28;20560;-65
2022/06/30 06:08:36;;;;;;;22.08;10.77;;;;;;;-144.47;52.71;53251.34;5049726;28;20033;-65
2022/06/30 06:11:02;;;;;;;28.85;13.05;;;;;;;-144.47;52.61;53265.25;5047976;28;20032;-66
2022/06/30 06:13:27;;;;;;;29.30;13.75;;;;;;;-144.47;52.65;53267.25;5048812;28;20021;-65
2022/06/30 06:15:53;;;;;;;52.15;16.00;;;;;;;-144.47;53.12;53249.38;5049351;28;20197;-65
2022/06/30 06:18:18;;;;;;;27.15;14.32;;;;;;;-144.47;53.09;53247.38;5047418;28;20474;-64
2022/06/30 06:20:44;;;;;;;31.67;13.80;;;;;;;-144.47;53.43;53301.03;5048230;28;20029;-65
2022/06/30 06:23:09;;;;;;;33.13;14.90;;;;;;;-144.47;53.67;53259.31;5048975;28;20021;-66
2022/06/30 06:25:35;;;;;;;32.25;15.35;;;;;;;-144.47;53.86;53285.13;5048490;28;20048;-64
2022/06/30 06:30:44;;;;;;;40.15;14.80;;;;;;;-144.47;53.91;53251.34;5055596;22;20043;-69
2022/06/30 06:33:10;;;;;;;32.80;15.10;;;;;;;-144.47;54.08;53221.56;5049912;28;20104;-68
2022/06/30 06:35:35;;;;;;;46.38;16.80;;;;;;;-144.47;54.89;53257.31;5048123;28;20363;-68
2022/06/30 06:38:01;;;;;;;45.80;16.13;;;;;;;-144.47;55.56;53237.44;5053244;28;20025;-69
2022/06/30 06:40:27;;;;;;;33.13;16.33;;;;;;;-144.47;55.38;53273.22;5031636;28;20021;-71
2022/06/30 06:42:52;;;;;;;37.47;15.70;;;;;;;-144.47;54.90;53265.25;5034952;28;20029;-68
2022/06/30 06:45:18;;;;;;;32.78;15.80;;;;;;;-144.47;54.63;53253.34;5044468;28;20017;-67
2022/06/30 06:47:43;;;;;;;42.38;17.73;;;;;;;-144.47;54.42;53247.38;5038440;28;20502;-69
2022/06/30 06:50:09;;;;;;;43.17;16.95;;;;;;;-144.47;54.34;53273.22;5043170;28;20104;-70
2022/06/30 06:52:34;;;;;;;37.58;16.08;;;;;;;-144.47;54.13;53241.44;5043695;28;20467;-71
2022/06/30 06:55:00;;;;;;;41.58;16.33;;;;;;;-144.47;53.78;53265.25;5040194;28;20052;-70
2022/06/30 06:57:32;;;;;;;51.30;17.17;;;;;;;-144.47;53.73;53297.03;5041684;28;20025;-69
2022/06/30 06:59:58;;;;;;;36.88;16.00;;;;;;;-144.47;53.45;53251.34;5039084;28;20041;-66
2022/06/30 07:02:23;;;;;;;39.00;15.32;;;;;;;-144.47;52.94;53245.41;5037549;28;20037;-69
2022/06/30 07:04:48;;;;;;;38.75;14.45;;;;;;;-144.47;53.20;53251.34;5036208;28;20268;-67
2022/06/30 07:07:13;;;;;;;40.55;15.80;;;;;;;-144.47;52.67;53265.25;5050002;28;20104;-71
2022/06/30 07:09:39;;;;;;;37.17;15.55;;;;;;;-144.47;52.51;53231.50;5040145;28;20436;-69
2022/06/30 07:12:05;;;;;;;32.25;14.93;;;;;;;-144.47;52.39;53239.44;5038264;28;20399;-70
2022/06/30 07:14:30;;;;;;;42.20;16.30;;;;;;;-144.47;51.75;53215.59;5052925;28;20048;-70
2022/06/30 07:16:55;;;;;;;52.00;15.10;;;;;;;-144.47;52.04;53241.44;5050801;28;20108;-67
2022/06/30 07:19:21;;;;;;;30.48;14.60;;;;;;;-144.47;51.61;53217.59;5032818;28;20057;-67
2022/06/30 07:21:46;;;;;;;42.05;17.35;;;;;;;-144.47;51.67;53231.50;5043840;28;20025;-67
2022/06/30 07:24:12;;;;;;;34.53;16.83;;;;;;;-144.47;51.75;53247.38;5047250;28;20013;-69
2022/06/30 07:26:37;;;;;;;39.97;17.27;;;;;;;-144.47;51.67;53225.53;5037893;28;20462;-67
2022/06/30 07:29:03;;;;;;;37.65;18.55;;;;;;;-144.47;51.97;53237.44;5032495;28;20025;-70
2022/06/30 07:31:28;;;;;;;37.03;15.35;;;;;;;-144.47;51.62;53219.56;5045443;28;20511;-69
2022/06/30 07:33:53;;;;;;;38.78;16.70;;;;;;;-144.47;51.44;53213.63;5041109;28;20477;-70
2022/06/30 07:36:19;;;;;;;46.92;17.00;;;;;;;-144.47;51.11;53205.66;5037681;28;20069;-70
2022/06/30 07:38:45;;;;;;;42.63;17.25;;;;;;;-144.47;50.78;53195.75;5031781;28;20467;-70
2022/06/30 07:41:10;;;;;;;37.05;16.27;;;;;;;-144.47;50.75;53237.44;5042020;28;20533;-69
2022/06/30 07:43:37;;;;;;;42.55;17.25;;;;;;;-144.47;50.37;53213.63;5039268;28;20121;-69
2022/06/30 07:46:03;;;;;;;40.03;16.02;;;;;;;-144.47;49.98;53225.53;5031943;28;20021;-69
2022/06/30 07:48:29;;;;;;;38.97;16.25;;;;;;;-144.47;48.83;53201.69;5044327;28;20018;-70
2022/06/30 07:50:54;;;;;;;37.40;17.38;;;;;;;-144.47;48.65;53211.63;5044853;28;20196;-70
2022/06/30 07:53:20;;;;;;;32.95;15.77;;;;;;;-144.47;48.61;53229.50;5031563;28;20049;-69
2022/06/30 07:55:45;;;;;;;35.53;15.63;;;;;;;-144.47;48.93;53227.53;5031609;28;20167;-69
2022/06/30 07:58:10;;;;;;;55.13;17.88;;;;;;;-144.47;48.29;53189.78;5031393;28;20030;-68
2022/06/30 08:00:36;;;;;;;32.58;15.32;;;;;;;-144.47;47.87;53215.59;5031052;28;20079;-68
2022/06/30 08:03:01;;;;;;;32.08;15.00;;;;;;;-144.47;47.71;53193.75;5039048;28;20115;-69
2022/06/30 08:05:27;;;;;;;30.08;15.88;;;;;;;-144.47;48.04;53237.44;5046036;28;20095;-71
2022/06/30 08:07:52;;;;;;;32.65;14.60;;;;;;;-144.47;47.94;53237.44;5038254;28;20040;-70
2022/06/30 08:10:17;;;;;;;31.50;14.65;;;;;;;-144.47;47.90;53201.69;5050011;28;20104;-70
2022/06/30 08:12:43;;;;;;;29.92;13.90;;;;;;;-144.47;47.60;53193.75;5043710;28;20317;-70
2022/06/30 08:15:09;;;;;;;32.25;15.05;;;;;;;-144.47;47.82;53183.81;5036210;28;20441;-70
2022/06/30 08:17:34;;;;;;;29.02;13.82;;;;;;;-144.47;47.71;53213.63;5031579;28;20063;-68
2022/06/30 08:20:00;;;;;;;38.65;16.70;;;;;;;-144.47;47.79;53217.59;5045043;28;20064;-68
2022/06/30 08:22:26;;;;;;;28.75;14.57;;;;;;;-144.47;48.77;53207.66;5038328;28;20482;-67
2022/06/30 08:24:51;;;;;;;31.25;16.52;;;;;;;-144.47;49.30;53213.63;5037614;28;20017;-70
2022/06/30 08:27:17;;;;;;;37.33;17.75;;;;;;;-144.47;49.80;53197.72;5045417;28;20029;-70
2022/06/30 08:29:42;;;;;;;40.13;16.98;;;;;;;-144.47;49.89;53241.44;5043808;28;20059;-67
2022/06/30 08:32:08;;;;;;;31.75;16.38;;;;;;;-144.47;50.05;53199.72;5030476;28;20244;-67
2022/06/30 08:34:34;;;;;;;39.65;17.50;;;;;;;-144.47;49.81;53223.56;5030925;28;20478;-70
2022/06/30 08:36:59;;;;;;;37.40;18.40;;;;;;;-144.47;50.04;53223.56;5051041;28;20033;-67
2022/06/30 08:42:11;;;;;;;38.17;18.27;;;;;;;-144.47;50.27;53237.44;5043271;28;20024;-70
2022/06/30 08:44:41;;;;;;;36.50;19.70;;;;;;;-144.47;50.23;53189.78;5034703;28;20036;-68
2022/06/30 08:47:08;;;;;;;41.78;18.80;;;;;;;-144.47;50.33;53211.63;5040649;28;20152;-69
2022/06/30 08:49:34;;;;;;;37.65;17.67;;;;;;;-144.47;50.38;53221.56;5044510;28;20024;-71
2022/06/30 08:52:00;;;;;;;47.78;21.83;;;;;;;-144.47;50.51;53213.63;5040384;28;20520;-70
2022/06/30 08:54:28;;;;;;;36.35;19.65;;;;;;;-144.47;50.23;53211.63;5050282;28;20028;-67
2022/06/30 08:56:56;;;;;;;52.05;21.10;;;;;;;-144.47;50.28;53205.66;5049620;28;20025;-69
2022/06/30 08:59:24;;;;;;;41.63;20.27;;;;;;;-144.47;50.32;53203.69;5036856;28;20044;-67
2022/06/30 09:01:49;;;;;;;42.28;20.17;;;;;;;-144.47;50.60;53259.31;5048571;28;20505;-68
2022/06/30 09:04:15;;;;;;;41.65;21.55;;;;;;;-144.47;50.62;53221.56;5045076;28;20048;-70
2022/06/30 09:06:45;;;;;;;41.20;20.95;;;;;;;-144.47;50.49;53225.53;5038815;28;20026;-69
2022/06/30 09:09:11;;;;;;;45.28;21.05;;;;;;;-144.47;50.69;53223.56;5043451;28;20026;-68
2022/06/30 09:11:52;;;;;;;50.28;23.13;;;;;;;-144.47;50.92;53249.38;5030214;28;20017;-69
2022/06/30 09:14:46;;;;;;;47.50;21.45;;;;;;;-144.47;50.22;53203.69;5036762;28;20025;-70
2022/06/30 09:17:18;;;;;;;45.85;21.80;;;;;;;-144.47;50.15;53221.56;5043801;28;20063;-70
2022/06/30 09:19:57;;;;;;;43.05;21.75;;;;;;;-144.47;49.92;53261.28;5029648;28;20036;-69
2022/06/30 09:22:25;;;;;;;40.05;20.75;;;;;;;-144.47;49.93;53201.69;5042626;28;20103;-69
2022/06/30 09:24:58;;;;;;;48.23;22.80;;;;;;;-144.47;49.41;53167.94;5044430;28;20021;-69
2022/06/30 09:27:24;;;;;;;44.78;23.13;;;;;;;-144.47;48.83;53209.66;5037539;28;20040;-68
2022/06/30 09:29:59;;;;;;;47.78;23.10;;;;;;;-144.47;48.29;53233.47;5033917;28;20025;-69
2022/06/30 09:32:24;;;;;;;41.03;22.30;;;;;;;-144.47;47.96;53229.50;5029553;28;20056;-68
2022/06/30 09:34:51;;;;;;;42.00;21.92;;;;;;;-144.47;47.59;53185.81;5042362;28;20106;-69
2022/06/30 09:37:22;;;;;;;44.80;20.08;;;;;;;-144.47;47.33;53211.63;5027249;28;20029;-70
2022/06/30 09:39:51;;;;;;;42.92;22.77;;;;;;;-144.47;46.91;53201.69;5029572;28;20013;-69
2022/06/30 09:42:42;;;;;;;43.60;20.67;;;;;;;-144.47;46.45;53209.66;5042555;28;20017;-70
2022/06/30 09:45:10;;;;;;;49.05;23.40;;;;;;;-144.47;46.18;53195.75;5029438;28;20471;-67
2022/06/30 09:47:37;;;;;;;48.10;23.83;;;;;;;-144.47;45.76;53175.88;5042557;28;20029;-69
2022/06/30 09:50:07;;;;;;;43.88;22.20;;;;;;;-144.47;46.22;53185.81;5039584;28;20128;-70
2022/06/30 09:52:33;;;;;;;44.53;22.48;;;;;;;-144.47;46.18;53171.91;5027163;28;20029;-67
2022/06/30 09:55:06;;;;;;;45.17;22.33;;;;;;;-144.47;45.83;53148.06;5041160;28;20021;-67
2022/06/30 09:57:52;;;;;;;47.72;22.35;;;;;;;-144.47;45.46;53167.94;5028118;28;20487;-68
2022/06/30 10:00:19;;;;;;;47.15;21.30;;;;;;;-144.47;44.85;53173.88;5037695;28;20113;-69
2022/06/30 10:02:47;;;;;;;56.58;26.35;;;;;;;-144.47;44.98;53161.97;5034852;28;20114;-69
2022/06/30 10:05:17;;;;;;;53.90;23.10;;;;;;;-144.47;45.62;53183.81;5048499;28;20028;-68
2022/06/30 10:07:44;;;;;;;57.17;24.58;;;;;;;-144.47;46.07;53189.78;5035342;28;20029;-70
2022/06/30 10:10:11;;;;;;;54.65;24.95;;;;;;;-144.47;46.54;53179.84;5047267;28;20051;-67
2022/06/30 10:12:37;;;;;;;58.35;26.77;;;;;;;-144.47;46.82;53191.78;5042051;28;20025;-71
2022/06/30 10:15:04;;;;;;;49.85;24.35;;;;;;;-144.47;46.78;53161.97;5035689;28;20105;-68
2022/06/30 10:17:52;;;;;;;54.17;24.80;;;;;;;-144.47;46.47;53156.00;5028692;28;20029;-68
2022/06/30 10:20:18;;;;;;;52.65;24.85;;;;;;;-144.47;46.71;53187.78;5041965;28;20025;-68
2022/06/30 10:22:44;;;;;;;61.10;26.85;;;;;;;-144.47;46.51;53211.63;5027827;28;20048;-69
2022/06/30 10:25:09;;;;;;;42.83;22.52;;;;;;;-144.47;46.40;53213.63;5041704;28;20359;-67
2022/06/30 10:27:34;;;;;;;55.00;25.98;;;;;;;-144.47;46.40;53179.84;5026732;28;20025;-70
2022/06/30 10:30:12;;;;;;;52.05;25.55;;;;;;;-144.47;46.32;53203.69;5042051;28;20122;-69
2022/06/30 10:33:03;;;;;;;49.28;25.55;;;;;;;-144.47;45.95;53187.78;5037845;28;20116;-67
2022/06/30 10:35:38;;;;;;;59.53;27.23;;;;;;;-144.47;46.05;53183.81;5046311;28;20033;-69
2022/06/30 10:38:09;;;;;;;54.75;25.58;;;;;;;-144.47;45.79;53154.03;5032161;28;20033;-67
2022/06/30 10:41:02;;;;;;;57.95;23.77;;;;;;;-144.47;45.79;53169.91;5050195;28;20021;-71
2022/06/30 10:43:27;;;;;;;59.03;24.08;;;;;;;-144.47;45.35;53173.88;5050488;28;20414;-69
2022/06/30 10:45:59;;;;;;;50.55;23.75;;;;;;;-144.47;45.25;53197.72;5039040;28;20530;-68
2022/06/30 10:48:29;;;;;;;59.15;23.33;;;;;;;-144.47;44.78;53167.94;5043620;28;20037;-68
2022/06/30 10:50:55;;;;;;;48.85;24.77;;;;;;;-144.47;44.54;53185.81;5048865;28;20111;-69
2022/06/30 10:53:41;;;;;;;61.90;25.97;;;;;;;-144.47;45.06;53185.81;5049372;28;20085;-71
2022/06/30 10:56:07;;;;;;;62.13;26.00;;;;;;;-144.47;44.95;53195.75;5045467;28;20044;-69
2022/06/30 10:58:32;;;;;;;50.47;24.85;;;;;;;-144.47;44.65;53163.97;5049850;28;20044;-69
2022/06/30 11:01:05;;;;;;;45.83;24.17;;;;;;;-144.47;44.38;53171.91;5039930;28;20112;-71
2022/06/30 11:03:39;;;;;;;44.05;21.48;;;;;;;-144.47;44.04;53148.06;5044412;28;20631;-68
2022/06/30 11:06:10;;;;;;;52.03;24.95;;;;;;;-144.47;43.82;53150.06;5046028;28;20453;-70
2022/06/30 11:08:48;;;;;;;52.10;26.02;;;;;;;-144.47;44.12;53140.13;5039255;28;20094;-70
2022/06/30 11:11:22;;;;;;;55.13;24.67;;;;;;;-144.47;44.11;53163.97;5045214;28;20041;-68
2022/06/30 11:14:02;;;;;;;55.75;27.63;;;;;;;-144.47;44.07;53136.16;5034545;28;20347;-68
2022/06/30 11:16:36;;;;;;;54.92;25.05;;;;;;;-144.47;43.84;53183.81;5040161;28;20025;-69
2022/06/30 11:19:04;;;;;;;58.75;26.40;;;;;;;-144.47;43.17;53146.09;5032176;28;20029;-69
2022/06/30 11:21:31;;;;;;;50.03;24.17;;;;;;;-144.47;43.31;53146.09;5043065;28;20071;-67